createdAt,value
2022-09-28T00:01:16.574Z,75.37
2022-09-28T00:03:44.786Z,75.52
2022-09-28T00:06:15.715Z,75.06
2022-09-28T00:08:43.606Z,74.49
2022-09-28T00:11:15.626Z,74.35
2022-09-28T00:13:44.552Z,74.57
2022-09-28T00:16:14.712Z,74.39
2022-09-28T00:18:42.808Z,74.59
2022-09-28T00:21:13.250Z,75.03
2022-09-28T00:23:55.775Z,74.24
2022-09-28T00:26:25.711Z,74.43
2022-09-28T00:28:53.709Z,74.17
2022-09-28T00:31:21.841Z,74.40
2022-09-28T00:33:51.218Z,73.95
2022-09-28T00:36:19.155Z,74.00
2022-09-28T00:38:47.361Z,74.78
2022-09-28T00:41:15.924Z,74.51
2022-09-28T00:43:45.199Z,74.73
2022-09-28T00:46:18.875Z,75.30
2022-09-28T00:48:52.531Z,75.01
2022-09-28T00:51:20.579Z,74.90
2022-09-28T00:53:50.151Z,75.03
2022-09-28T00:56:21.386Z,74.68
2022-09-28T00:58:54.558Z,75.83
2022-09-28T01:01:22.676Z,75.41
2022-09-28T01:03:51.341Z,75.16
2022-09-28T01:06:22.088Z,75.12
2022-09-28T01:08:53.075Z,75.33
2022-09-28T01:11:21.330Z,75.41
2022-09-28T01:13:53.908Z,75.46
2022-09-28T01:16:30.765Z,75.44
2022-09-28T01:19:21.850Z,75.29
2022-09-28T01:21:54.636Z,75.70
2022-09-28T01:24:39.699Z,75.67
2022-09-28T01:27:14.264Z,75.50
2022-09-28T01:29:52.818Z,74.91
2022-09-28T01:32:29.599Z,75.28
2022-09-28T01:35:03.742Z,74.79
2022-09-28T01:37:37.055Z,74.61
2022-09-28T01:40:08.135Z,74.83
2022-09-28T01:42:40.601Z,74.68
2022-09-28T01:45:15.704Z,74.29
2022-09-28T01:47:46.382Z,74.35
2022-09-28T01:50:18.404Z,74.18
2022-09-28T01:52:52.834Z,74.08
2022-09-28T01:55:29.360Z,73.83
2022-09-28T01:58:04.323Z,73.74
2022-09-28T02:00:35.718Z,74.02
2022-09-28T02:03:09.083Z,74.29
2022-09-28T02:05:48.070Z,74.52
2022-09-28T02:08:22.325Z,74.25
2022-09-28T02:10:56.038Z,74.32
2022-09-28T02:13:29.213Z,73.90
2022-09-28T02:16:02.514Z,74.29
2022-09-28T02:18:30.772Z,74.16
2022-09-28T02:21:07.479Z,74.15
2022-09-28T02:23:38.906Z,74.18
2022-09-28T02:26:11.317Z,74.35
2022-09-28T02:28:40.673Z,74.23
2022-09-28T02:31:08.799Z,74.31
2022-09-28T02:33:40.836Z,74.62
2022-09-28T02:36:09.312Z,74.65
2022-09-28T02:38:39.776Z,74.27
2022-09-28T02:41:14.621Z,74.52
2022-09-28T02:43:57.221Z,74.88
2022-09-28T02:46:30.764Z,74.77
2022-09-28T02:49:22.247Z,74.62
2022-09-28T02:52:06.698Z,74.81
2022-09-28T02:54:49.239Z,74.90
2022-09-28T02:57:32.410Z,75.01
2022-09-28T03:00:08.412Z,74.67
2022-09-28T03:02:43.844Z,74.89
2022-09-28T03:05:17.807Z,74.74
2022-09-28T03:07:54.421Z,74.87
2022-09-28T03:10:29.760Z,75.25
2022-09-28T03:12:58.791Z,75.01
2022-09-28T03:15:29.942Z,75.33
2022-09-28T03:17:58.131Z,75.00
2022-09-28T03:20:26.843Z,75.08
2022-09-28T03:23:20.169Z,74.92
2022-09-28T03:25:43.111Z,75.42
2022-09-28T03:28:11.111Z,75.69
2022-09-28T03:30:43.035Z,75.79
2022-09-28T03:33:11.128Z,75.51
2022-09-28T03:35:39.760Z,75.62
2022-09-28T03:38:08.262Z,75.29
2022-09-28T03:40:39.099Z,76.00
2022-09-28T03:43:07.597Z,75.69
2022-09-28T03:45:35.910Z,76.08
2022-09-28T03:48:05.413Z,77.64
2022-09-28T03:50:35.266Z,76.81
2022-09-28T03:53:04.628Z,71.88
2022-09-28T03:55:32.558Z,71.71
2022-09-28T03:58:00.668Z,72.69
2022-09-28T04:00:28.769Z,73.07
2022-09-28T04:02:56.803Z,73.16
2022-09-28T04:05:26.184Z,73.66
2022-09-28T04:07:57.695Z,73.84
2022-09-28T04:10:26.321Z,74.60
2022-09-28T04:12:55.954Z,75.67
2022-09-28T04:15:24.307Z,75.41
2022-09-28T04:17:52.839Z,75.75
2022-09-28T04:20:43.282Z,76.01
2022-09-28T04:23:13.832Z,76.49
2022-09-28T04:25:41.957Z,76.77
2022-09-28T04:28:24.545Z,76.73
2022-09-28T04:30:52.551Z,76.81
2022-09-28T04:33:20.667Z,77.48
2022-09-28T04:35:49.972Z,77.37
2022-09-28T04:38:26.921Z,77.07
2022-09-28T04:41:06.952Z,77.51
2022-09-28T04:43:35.231Z,77.83
2022-09-28T04:46:05.473Z,77.93
2022-09-28T04:48:40.102Z,77.74
2022-09-28T04:51:24.626Z,77.64
2022-09-28T04:53:52.776Z,77.75
2022-09-28T04:56:21.545Z,78.29
2022-09-28T04:58:52.815Z,78.37
2022-09-28T05:01:23.706Z,78.10
2022-09-28T05:04:15.018Z,78.28
2022-09-28T05:06:53.860Z,77.35
2022-09-28T05:09:21.794Z,77.79
2022-09-28T05:11:50.311Z,76.83
2022-09-28T05:14:21.902Z,77.59
2022-09-28T05:16:49.956Z,77.40
2022-09-28T05:19:30.225Z,77.31
2022-09-28T05:22:04.867Z,77.56
2022-09-28T05:24:40.077Z,77.91
2022-09-28T05:27:08.387Z,79.89
2022-09-28T05:29:36.499Z,77.63
2022-09-28T05:32:25.393Z,77.19
2022-09-28T05:35:19.625Z,77.51
2022-09-28T05:37:50.243Z,77.26
2022-09-28T05:40:18.531Z,77.24
2022-09-28T05:42:46.532Z,77.66
2022-09-28T05:45:14.843Z,77.43
2022-09-28T05:47:46.805Z,77.26
2022-09-28T05:50:17.431Z,77.60
2022-09-28T05:52:45.535Z,77.74
2022-09-28T05:55:15.871Z,77.39
2022-09-28T05:57:44.357Z,78.04
2022-09-28T06:00:13.288Z,76.93
2022-09-28T06:02:42.899Z,77.54
2022-09-28T06:05:13.852Z,80.71
2022-09-28T06:07:42.930Z,77.68
2022-09-28T06:10:11.431Z,77.47
2022-09-28T06:12:45.580Z,77.49
2022-09-28T06:15:17.349Z,77.62
2022-09-28T06:17:46.944Z,77.84
2022-09-28T06:20:39.654Z,77.86
2022-09-28T06:23:17.910Z,77.18
2022-09-28T06:25:45.944Z,78.00
2022-09-28T06:28:16.475Z,77.81
2022-09-28T06:30:45.813Z,77.77
2022-09-28T06:33:17.271Z,78.27
2022-09-28T06:35:45.397Z,77.96
2022-09-28T06:38:13.577Z,78.04
2022-09-28T06:40:41.767Z,78.10
2022-09-28T06:43:12.569Z,78.15
2022-09-28T06:46:00.972Z,82.95
2022-09-28T06:48:38.137Z,82.03
2022-09-28T06:51:07.845Z,78.44
2022-09-28T06:53:56.450Z,78.29
2022-09-28T06:56:50.833Z,78.33
2022-09-28T06:59:20.488Z,78.30
2022-09-28T07:01:49.883Z,78.22
2022-09-28T07:04:28.804Z,77.52
2022-09-28T07:06:56.726Z,77.89
2022-09-28T07:09:48.109Z,78.30
2022-09-28T07:12:30.189Z,78.41
2022-09-28T07:15:03.776Z,78.02
2022-09-28T07:17:38.129Z,77.82
2022-09-28T07:20:18.952Z,78.10
2022-09-28T07:22:48.676Z,77.75
2022-09-28T07:25:21.040Z,77.98
2022-09-28T07:28:04.182Z,77.92
2022-09-28T07:31:04.354Z,78.10
2022-09-28T07:34:03.032Z,77.68
2022-09-28T07:36:36.565Z,77.69
2022-09-28T07:39:04.999Z,78.04
2022-09-28T07:41:33.073Z,77.87
2022-09-28T07:44:06.507Z,77.54
2022-09-28T07:46:36.949Z,77.67
2022-09-28T07:49:25.557Z,78.35
2022-09-28T07:52:09.136Z,78.01
2022-09-28T07:54:41.750Z,78.81
2022-09-28T07:57:29.324Z,78.70
2022-09-28T08:00:16.622Z,78.66
2022-09-28T08:02:48.378Z,77.66
2022-09-28T08:05:25.919Z,78.63
2022-09-28T08:07:57.710Z,77.87
2022-09-28T08:10:28.090Z,78.40
2022-09-28T08:13:20.383Z,77.85
2022-09-28T08:16:02.207Z,78.05
2022-09-28T08:18:38.216Z,78.40
2022-09-28T08:21:26.066Z,78.38
2022-09-28T08:23:54.331Z,78.74
2022-09-28T08:26:22.415Z,78.50
2022-09-28T08:28:51.220Z,77.95
2022-09-28T08:31:52.949Z,78.75
2022-09-28T08:34:55.953Z,78.29
2022-09-28T08:37:48.868Z,78.10
2022-09-28T08:40:47.912Z,77.65
2022-09-28T08:43:45.931Z,77.41
2022-09-28T08:46:36.613Z,77.18
2022-09-28T08:49:30.065Z,77.65
2022-09-28T08:52:23.296Z,76.38
2022-09-28T08:55:31.115Z,76.30
2022-09-28T08:58:05.464Z,76.39
2022-09-28T09:00:40.862Z,76.67
2022-09-28T09:03:14.427Z,75.54
2022-09-28T09:05:55.992Z,76.48
2022-09-28T09:08:55.135Z,76.45
2022-09-28T09:11:40.762Z,75.42
2022-09-28T09:14:18.208Z,74.83
2022-09-28T09:17:00.478Z,76.14
2022-09-28T09:19:48.813Z,75.26
2022-09-28T09:22:52.862Z,75.50
2022-09-28T09:25:28.262Z,75.13
2022-09-28T09:28:42.005Z,75.62
2022-09-28T09:31:24.138Z,75.65
2022-09-28T09:34:20.800Z,75.36
2022-09-28T09:37:08.447Z,74.66
2022-09-28T09:39:55.680Z,75.19
2022-09-28T09:42:56.228Z,76.10
2022-09-28T09:46:00.694Z,74.93
2022-09-28T09:48:39.426Z,74.50
2022-09-28T09:51:18.027Z,75.11
2022-09-28T09:53:55.425Z,73.01
2022-09-28T09:56:32.284Z,74.15
2022-09-28T09:59:22.044Z,74.79
2022-09-28T10:02:26.958Z,74.25
2022-09-28T10:05:21.073Z,74.43
2022-09-28T10:07:53.131Z,75.11
2022-09-28T10:10:28.425Z,74.92
2022-09-28T10:13:13.522Z,75.19
2022-09-28T10:15:47.519Z,75.79
2022-09-28T10:18:37.703Z,75.72
2022-09-28T10:21:24.826Z,74.63
2022-09-28T10:24:02.528Z,75.86
2022-09-28T10:26:36.592Z,74.42
2022-09-28T10:29:13.090Z,73.90
2022-09-28T10:31:43.194Z,74.13
2022-09-28T10:34:32.851Z,74.53
2022-09-28T10:37:10.880Z,74.38
2022-09-28T10:39:57.514Z,74.80
2022-09-28T10:42:29.710Z,73.01
2022-09-28T10:45:04.597Z,73.27
2022-09-28T10:47:45.768Z,76.17
2022-09-28T10:50:22.028Z,73.53
2022-09-28T10:52:52.838Z,74.72
2022-09-28T10:55:59.620Z,74.52
2022-09-28T10:58:30.526Z,74.77
2022-09-28T11:01:04.776Z,74.58
2022-09-28T11:03:33.862Z,73.53
2022-09-28T11:06:09.000Z,73.18
2022-09-28T11:08:42.635Z,74.28
2022-09-28T11:11:16.858Z,73.90
2022-09-28T11:13:50.392Z,73.85
2022-09-28T11:16:29.772Z,73.49
2022-09-28T11:19:00.076Z,72.90
2022-09-28T11:21:32.189Z,72.59
2022-09-28T11:24:07.467Z,73.38
2022-09-28T11:26:43.009Z,73.10
2022-09-28T11:29:23.847Z,72.86
2022-09-28T11:32:12.515Z,71.76
2022-09-28T11:35:26.163Z,72.39
2022-09-28T11:38:09.541Z,72.42
2022-09-28T11:41:18.342Z,71.71
2022-09-28T11:44:05.150Z,72.08
2022-09-28T11:46:42.964Z,71.63
2022-09-28T11:49:27.429Z,73.34
2022-09-28T11:52:01.971Z,71.13
2022-09-28T11:54:39.461Z,71.27
2022-09-28T11:57:15.451Z,71.15
2022-09-28T11:59:53.447Z,69.14
2022-09-28T12:02:25.873Z,70.74
2022-09-28T12:05:07.726Z,69.17
2022-09-28T12:07:39.535Z,68.36
2022-09-28T12:10:21.023Z,66.96
2022-09-28T12:12:57.861Z,69.94
2022-09-28T12:15:42.269Z,70.03
2022-09-28T12:18:24.306Z,69.64
2022-09-28T12:21:04.420Z,68.75
2022-09-28T12:23:35.994Z,68.62
2022-09-28T12:26:13.628Z,67.19
2022-09-28T12:28:46.974Z,67.82
2022-09-28T12:31:21.410Z,64.34
2022-09-28T12:33:52.101Z,64.45
2022-09-28T12:36:33.565Z,65.08
2022-09-28T12:39:30.739Z,65.24
2022-09-28T12:42:18.118Z,65.12
2022-09-28T12:45:04.294Z,65.07
2022-09-28T12:47:50.914Z,65.35
2022-09-28T12:50:47.532Z,65.86
2022-09-28T12:53:31.058Z,64.62
2022-09-28T12:56:04.380Z,65.32
2022-09-28T12:58:55.915Z,65.04
2022-09-28T13:01:40.728Z,65.74
2022-09-28T13:04:39.135Z,64.34
2022-09-28T13:07:10.669Z,64.69
2022-09-28T13:09:49.977Z,64.39
2022-09-28T13:12:35.111Z,64.62
2022-09-28T13:15:26.250Z,63.38
2022-09-28T13:18:08.968Z,65.40
2022-09-28T13:20:48.523Z,64.99
2022-09-28T13:23:22.092Z,64.01
2022-09-28T13:25:56.567Z,64.03
2022-09-28T13:28:27.160Z,65.86
2022-09-28T13:33:36.857Z,64.16
2022-09-28T13:36:25.968Z,64.12
2022-09-28T13:38:55.325Z,63.87
2022-09-28T13:41:29.080Z,64.54
2022-09-28T13:44:28.595Z,64.61
2022-09-28T13:47:11.516Z,64.18
2022-09-28T13:49:52.276Z,65.53
2022-09-28T13:52:33.866Z,65.36
2022-09-28T13:55:18.159Z,64.05
2022-09-28T13:57:52.529Z,63.41
2022-09-28T14:00:26.506Z,65.50
2022-09-28T14:03:01.370Z,65.91
2022-09-28T14:05:38.236Z,65.13
2022-09-28T14:08:28.238Z,64.04
2022-09-28T14:10:57.213Z,64.17
2022-09-28T14:14:01.538Z,65.68
2022-09-28T14:16:32.120Z,63.15
2022-09-28T14:19:08.052Z,63.48
2022-09-28T14:21:58.028Z,64.38
2022-09-28T14:24:40.748Z,63.49
2022-09-28T14:27:42.241Z,63.67
2022-09-28T14:30:46.485Z,62.06
2022-09-28T14:33:23.651Z,62.01
2022-09-28T14:35:56.566Z,63.27
2022-09-28T14:38:44.880Z,62.68
2022-09-28T14:41:31.363Z,63.73
2022-09-28T14:44:09.411Z,62.39
2022-09-28T14:46:45.593Z,61.68
2022-09-28T14:49:45.592Z,61.96
2022-09-28T14:52:20.573Z,63.52
2022-09-28T14:54:56.941Z,63.96
2022-09-28T14:57:29.996Z,62.26
2022-09-28T15:00:00.599Z,62.78
2022-09-28T15:02:33.231Z,62.34
2022-09-28T15:05:11.838Z,62.49
2022-09-28T15:07:49.627Z,62.02
2022-09-28T15:10:28.209Z,62.67
2022-09-28T15:12:57.104Z,61.84
2022-09-28T15:15:36.507Z,62.06
2022-09-28T15:18:43.722Z,62.91
2022-09-28T15:21:13.289Z,62.78
2022-09-28T15:23:44.784Z,62.52
2022-09-28T15:26:24.261Z,62.68
2022-09-28T15:28:52.124Z,63.06
2022-09-28T15:31:22.740Z,62.69
2022-09-28T15:34:08.572Z,63.46
2022-09-28T15:36:42.867Z,63.44
2022-09-28T15:39:16.094Z,62.18
2022-09-28T15:41:46.376Z,61.43
2022-09-28T15:44:32.900Z,62.54
2022-09-28T15:47:14.624Z,61.72
2022-09-28T15:49:46.739Z,62.16
2022-09-28T15:52:29.670Z,62.57
2022-09-28T15:55:00.936Z,62.62
2022-09-28T15:57:38.523Z,63.24
2022-09-28T16:00:22.997Z,63.25
2022-09-28T16:03:20.214Z,63.60
2022-09-28T16:05:51.051Z,64.01
2022-09-28T16:08:25.487Z,64.88
2022-09-28T16:11:05.658Z,64.84
2022-09-28T16:13:34.983Z,62.24
2022-09-28T16:16:03.275Z,64.13
2022-09-28T16:18:32.416Z,64.21
2022-09-28T16:21:30.374Z,64.15
2022-09-28T16:23:58.462Z,62.55
2022-09-28T16:26:33.817Z,63.22
2022-09-28T16:29:09.410Z,64.37
2022-09-28T16:31:41.352Z,63.70
2022-09-28T16:34:19.987Z,63.44
2022-09-28T16:36:50.458Z,63.13
2022-09-28T16:39:20.653Z,64.00
2022-09-28T16:41:55.616Z,63.59
2022-09-28T16:44:26.988Z,64.20
2022-09-28T16:46:58.556Z,63.28
2022-09-28T16:49:28.260Z,63.90
2022-09-28T16:51:56.433Z,63.73
2022-09-28T16:54:43.799Z,65.00
2022-09-28T16:57:15.860Z,65.05
2022-09-28T16:59:43.865Z,65.20
2022-09-28T17:02:45.134Z,65.56
2022-09-28T17:05:10.130Z,65.95
2022-09-28T17:07:38.299Z,65.79
2022-09-28T17:10:15.605Z,65.68
2022-09-28T17:12:44.928Z,66.07
2022-09-28T17:15:19.488Z,66.43
2022-09-28T17:17:47.830Z,66.38
2022-09-28T17:20:22.359Z,67.13
2022-09-28T17:22:50.346Z,67.38
2022-09-28T17:25:19.110Z,67.51
2022-09-28T17:27:50.692Z,67.84
2022-09-28T17:30:23.627Z,68.16
2022-09-28T17:32:54.183Z,68.01
2022-09-28T17:35:24.941Z,68.11
2022-09-28T17:37:54.072Z,68.66
2022-09-28T17:40:28.235Z,68.49
2022-09-28T17:42:59.358Z,69.40
2022-09-28T17:45:31.369Z,69.10
2022-09-28T17:48:00.738Z,69.09
2022-09-28T17:50:32.444Z,68.46
2022-09-28T17:53:05.956Z,68.42
2022-09-28T17:55:34.987Z,67.64
2022-09-28T17:58:16.641Z,67.39
2022-09-28T18:00:46.688Z,67.21
2022-09-28T18:03:17.601Z,68.20
2022-09-28T18:05:48.334Z,68.23
2022-09-28T18:08:19.778Z,67.58
2022-09-28T18:10:48.061Z,67.85
2022-09-28T18:13:18.217Z,68.17
2022-09-28T18:15:46.276Z,67.81
2022-09-28T18:18:14.662Z,68.37
2022-09-28T18:20:43.027Z,67.98
2022-09-28T18:23:10.919Z,68.05
2022-09-28T18:25:40.682Z,67.74
2022-09-28T18:28:08.789Z,67.95
2022-09-28T18:30:40.575Z,67.65
2022-09-28T18:33:09.740Z,68.17
2022-09-28T18:35:37.998Z,68.79
2022-09-28T18:38:06.286Z,68.73
2022-09-28T18:40:35.225Z,68.50
2022-09-28T18:43:03.251Z,68.35
2022-09-28T18:45:31.407Z,68.71
2022-09-28T18:48:01.079Z,68.82
2022-09-28T18:50:29.186Z,68.88
2022-09-28T18:53:11.298Z,69.49
2022-09-28T18:55:40.443Z,69.39
2022-09-28T18:58:09.435Z,69.84
2022-09-28T19:00:39.396Z,70.24
2022-09-28T19:03:11.167Z,70.47
2022-09-28T19:05:43.090Z,70.57
2022-09-28T19:08:11.234Z,70.26
2022-09-28T19:10:39.202Z,70.10
2022-09-28T19:13:07.244Z,70.03
2022-09-28T19:15:35.446Z,70.02
2022-09-28T19:18:03.928Z,70.46
2022-09-28T19:20:35.172Z,70.33
2022-09-28T19:23:04.044Z,69.91
2022-09-28T19:25:31.997Z,70.10
2022-09-28T19:27:59.957Z,70.21
2022-09-28T19:30:28.051Z,70.14
2022-09-28T19:32:55.913Z,69.98
2022-09-28T19:35:23.962Z,69.64
2022-09-28T19:37:53.728Z,69.50
2022-09-28T19:40:21.822Z,69.31
2022-09-28T19:42:50.934Z,69.22
2022-09-28T19:45:18.924Z,68.94
2022-09-28T19:47:49.972Z,68.86
2022-09-28T19:50:18.135Z,69.05
2022-09-28T19:52:46.079Z,68.56
2022-09-28T19:55:17.283Z,68.72
2022-09-28T19:57:47.881Z,68.39
2022-09-28T20:00:16.781Z,69.25
2022-09-28T20:02:44.786Z,68.82
2022-09-28T20:05:12.738Z,69.21
2022-09-28T20:07:40.731Z,69.17
2022-09-28T20:10:10.161Z,69.39
2022-09-28T20:12:41.031Z,69.32
2022-09-28T20:15:10.572Z,69.29
2022-09-28T20:17:39.055Z,68.74
2022-09-28T20:20:07.575Z,68.93
2022-09-28T20:22:36.991Z,69.20
2022-09-28T20:25:05.401Z,69.22
2022-09-28T20:27:33.369Z,69.53
2022-09-28T20:30:02.918Z,70.30
2022-09-28T20:32:32.440Z,70.31
2022-09-28T20:35:00.369Z,70.47
2022-09-28T20:37:28.304Z,70.51
2022-09-28T20:39:56.347Z,70.80
2022-09-28T20:42:24.407Z,70.42
2022-09-28T20:44:52.452Z,71.24
2022-09-28T20:47:21.896Z,71.24
2022-09-28T20:49:49.923Z,71.45
2022-09-28T20:52:17.927Z,71.80
2022-09-28T20:54:46.254Z,71.65
2022-09-28T20:57:20.521Z,71.97
2022-09-28T20:59:53.606Z,71.55
2022-09-28T21:02:23.867Z,72.04
2022-09-28T21:04:51.951Z,71.59
2022-09-28T21:07:20.135Z,71.60
2022-09-28T21:09:48.790Z,71.36
2022-09-28T21:12:17.116Z,71.49
2022-09-28T21:14:45.050Z,71.79
2022-09-28T21:17:13.002Z,71.64
2022-09-28T21:19:44.198Z,71.77
2022-09-28T21:22:12.779Z,71.84
2022-09-28T21:24:40.873Z,72.02
2022-09-28T21:27:08.853Z,71.79
2022-09-28T21:29:36.883Z,72.09
2022-09-28T21:32:05.947Z,72.06
2022-09-28T21:34:35.769Z,72.30
2022-09-28T21:37:05.054Z,72.03
2022-09-28T21:39:33.133Z,72.26
2022-09-28T21:42:01.162Z,72.24
2022-09-28T21:44:29.166Z,72.04
2022-09-28T21:46:57.180Z,72.33
2022-09-28T21:49:25.228Z,72.19
2022-09-28T21:51:53.198Z,72.25
2022-09-28T21:54:22.544Z,71.88
2022-09-28T21:56:50.500Z,71.86
2022-09-28T21:59:18.475Z,71.62
2022-09-28T22:01:48.009Z,71.63
2022-09-28T22:04:16.067Z,71.95
2022-09-28T22:06:43.981Z,71.74
2022-09-28T22:09:12.008Z,72.17
2022-09-28T22:11:41.409Z,72.19
2022-09-28T22:14:11.510Z,72.44
2022-09-28T22:16:39.637Z,72.39
2022-09-28T22:19:07.619Z,72.43
2022-09-28T22:21:35.577Z,72.42
2022-09-28T22:24:05.534Z,72.37
2022-09-28T22:26:35.058Z,72.63
2022-09-28T22:29:06.778Z,72.56
2022-09-28T22:31:36.939Z,72.75
2022-09-28T22:34:06.221Z,72.66
2022-09-28T22:36:34.596Z,72.31
2022-09-28T22:39:02.677Z,72.71
2022-09-28T22:41:31.760Z,72.06
2022-09-28T22:44:00.039Z,72.50
2022-09-28T22:46:32.147Z,72.33
2022-09-28T22:49:00.450Z,72.31
2022-09-28T22:51:30.148Z,72.50
2022-09-28T22:53:58.901Z,72.37
2022-09-28T22:56:27.338Z,72.50
2022-09-28T22:58:55.277Z,72.72
2022-09-28T23:01:25.397Z,72.64
2022-09-28T23:03:55.988Z,72.80
2022-09-28T23:06:25.984Z,71.86
2022-09-28T23:08:54.533Z,71.69
2022-09-28T23:11:22.643Z,71.37
2022-09-28T23:13:51.477Z,71.51
2022-09-28T23:16:20.342Z,70.82
2022-09-28T23:18:49.178Z,71.15
2022-09-28T23:21:20.393Z,71.49
2022-09-28T23:23:53.208Z,71.69
2022-09-28T23:26:23.692Z,71.85
2022-09-28T23:28:52.041Z,71.85
2022-09-28T23:31:23.104Z,71.89
2022-09-28T23:33:51.723Z,71.84
2022-09-28T23:36:21.135Z,71.88
2022-09-28T23:38:49.071Z,72.51
2022-09-28T23:41:17.033Z,72.27
2022-09-28T23:43:44.997Z,72.50
2022-09-28T23:46:15.305Z,72.48
2022-09-28T23:48:45.346Z,73.62
2022-09-28T23:51:13.392Z,74.15
2022-09-28T23:53:43.256Z,74.21
2022-09-28T23:56:11.242Z,74.13
2022-09-28T23:58:39.235Z,74.05
